首页
METAR-TAF:

METAR-TAF

机场 :

顿河畔罗斯托夫, 俄罗斯

纬度: 47-29-38N, 经度: 039-55-29E, 海拔: 65米

当前天气观测

该预报发布于10分钟前的04:30 UTC
风速6节,风向西南
温度 17°C
湿度 77%
气压 1017 hPa
能见度10公里或以上
少量云层高于1700英尺

METAR: URRP 050430Z 23003MPS 9999 FEW017 17/13 Q1017 R23/CLRD70 TEMPO 2000 BR SCT005 RMK QFE755/1007

时间: 08:40 (04:40 UTC)

预报

该预报发布于2小时和44分钟前的01:56 UTC
预报有效从05日的 03点(UTC)到 06日的 03点(UTC)
风速6节,风向西转西南,有时为19节阵风
能见度10公里或以上
散云层高于3000英尺, 积雨云.
短暂存在
从 05日的 03点(UTC)到 05日的 06点(UTC)
能見度: 6000
散云层高于1600英尺
散云层高于2000英尺, 积雨云.
小阵雨
几率 40% :
短暂存在
从 05日的 03点(UTC)到 05日的 06点(UTC)
能見度: 3000
散云层高于1100英尺
散云层高于2000英尺, 积雨云.
雷暴, 小雨

TAF: URRP 050156Z 0503/0603 25003G10MPS 9999 SCT030CB TX23/0512Z TN13/0602Z TEMPO 0503/0506 6000 -SHRA SCT016 SCT020CB PROB40 TEMPO 0503/0506 3000 -TSRA SCT011 SCT020CB

超过4000个机场的气象观测和天气预报(METAR&TAF报告)。

可查询的气象台以黄色和红色小点在地图上表示。

将鼠标移到小点上方,可查看气象台名称。

然后点击查看天气观测和预报。

如需切换地图:点击带黑十字的绿色按钮放大地图;点击带横线的绿色按钮缩小地图;或者点击绿色箭头查看邻近地区的地图。


METAR-TAF: